Time;durP1;ratioP1;P1;durP2;ratioP2;P2;SDS_P1;SDS_P2;PMS_P1;PMS_P2;Temp;Humidity;BMP_temperature;BMP_pressure;BME280_temperature;BME280_humidity;BME280_pressure;Samples;Min_cycle;Max_cycle;Signal;HPM_P1;HPM_P2
2022/06/16 00:01:59;;;;;;;0.70;0.63;;;21.80;55.40;;;;;;6196742;28;20030;-76
2022/06/16 00:04:59;;;;;;;0.93;0.82;;;21.80;55.40;;;;;;6178024;28;20034;-76
2022/06/16 00:08:05;;;;;;;0.50;0.50;;;21.80;55.40;;;;;;6211242;28;20029;-75
2022/06/16 00:11:17;;;;;;;0.90;0.70;;;21.80;55.40;;;;;;6219963;28;20488;-75
2022/06/16 00:14:19;;;;;;;1.15;0.70;;;21.80;55.40;;;;;;6193653;28;20109;-75
2022/06/16 00:17:19;;;;;;;0.63;0.60;;;21.80;55.40;;;;;;6196954;28;20503;-76
2022/06/16 00:20:20;;;;;;;0.88;0.60;;;21.80;55.40;;;;;;6196967;28;20022;-76
2022/06/16 00:23:21;;;;;;;1.50;0.70;;;21.80;55.40;;;;;;6214270;28;20506;-75
2022/06/16 00:26:25;;;;;;;1.23;0.90;;;21.80;55.40;;;;;;6220370;28;20029;-76
2022/06/16 00:29:26;;;;;;;1.30;1.02;;;21.80;55.40;;;;;;6193451;28;20025;-75
2022/06/16 00:32:26;;;;;;;1.17;0.73;;;21.80;55.40;;;;;;6202672;28;20433;-75
2022/06/16 00:35:27;;;;;;;1.05;0.70;;;21.80;55.40;;;;;;6190736;28;20385;-75
2022/06/16 00:38:28;;;;;;;0.63;0.63;;;21.80;55.40;;;;;;6212611;28;20128;-75
2022/06/16 00:41:28;;;;;;;0.90;0.85;;;21.80;55.40;;;;;;6220524;28;20467;-75
2022/06/16 00:44:29;;;;;;;0.80;0.60;;;21.80;55.40;;;;;;6198808;28;20026;-75
2022/06/16 00:47:30;;;;;;;0.82;0.70;;;21.80;55.40;;;;;;6200425;28;20026;-75
2022/06/16 00:50:31;;;;;;;0.88;0.70;;;21.80;55.40;;;;;;6217304;28;20053;-76
2022/06/16 00:53:32;;;;;;;1.00;0.80;;;21.80;55.40;;;;;;6213578;28;20022;-75
2022/06/16 00:56:34;;;;;;;0.82;0.70;;;21.80;55.40;;;;;;6219743;28;20029;-75
2022/06/16 00:59:36;;;;;;;0.88;0.70;;;21.80;55.50;;;;;;6193971;28;20505;-75
2022/06/16 01:02:37;;;;;;;0.90;0.80;;;21.80;55.50;;;;;;6190553;28;20487;-75
2022/06/16 01:05:39;;;;;;;1.05;0.82;;;21.80;55.40;;;;;;6195386;28;20067;-75
2022/06/16 01:08:40;;;;;;;1.30;0.63;;;21.80;55.40;;;;;;6209273;28;20022;-75
2022/06/16 01:15:33;;;;;;;0.75;0.75;;;21.80;55.40;;;;;;6195427;28;20050;-76
2022/06/16 01:18:59;;;;;;;0.90;0.80;;;21.80;55.40;;;;;;6207183;28;20034;-75
2022/06/16 01:22:23;;;;;;;1.00;0.75;;;21.80;55.40;;;;;;6215981;28;20049;-76
2022/06/16 01:25:51;;;;;;;0.95;0.70;;;21.80;55.50;;;;;;6196125;28;20062;-75
2022/06/16 01:29:10;;;;;;;1.75;0.65;;;21.80;55.50;;;;;;6207555;28;20065;-75
2022/06/16 01:32:52;;;;;;;1.00;0.70;;;21.80;55.40;;;;;;6219844;28;20481;-76
2022/06/16 01:36:37;;;;;;;1.02;0.73;;;21.80;55.40;;;;;;6189781;28;20031;-74
2022/06/16 01:39:57;;;;;;;0.90;0.80;;;21.80;55.40;;;;;;6097365;29;20051;-75
2022/06/16 01:43:17;;;;;;;1.60;0.73;;;21.80;55.50;;;;;;6108332;28;20036;-76
2022/06/16 01:46:30;;;;;;;0.95;0.63;;;21.80;55.50;;;;;;6219954;28;20072;-75
2022/06/16 01:49:36;;;;;;;0.65;0.65;;;21.80;55.40;;;;;;6220233;28;20026;-75
2022/06/16 01:52:46;;;;;;;0.80;0.75;;;21.80;55.50;;;;;;6216538;28;20353;-75
2022/06/16 01:55:54;;;;;;;0.50;0.50;;;21.80;55.50;;;;;;6199433;28;20030;-75
2022/06/16 01:59:19;;;;;;;1.00;0.80;;;21.80;55.40;;;;;;6199550;28;20030;-75
2022/06/16 02:02:23;;;;;;;0.93;0.80;;;21.80;55.50;;;;;;6199132;28;20073;-75
2022/06/16 02:05:40;;;;;;;0.93;0.82;;;21.80;55.50;;;;;;6219127;28;20026;-75
2022/06/16 02:08:46;;;;;;;0.68;0.68;;;21.80;55.40;;;;;;6217603;28;20023;-75
2022/06/16 02:11:46;;;;;;;0.77;0.70;;;21.80;55.50;;;;;;6198866;28;20049;-75
2022/06/16 02:14:52;;;;;;;0.70;0.70;;;21.80;55.40;;;;;;6213306;28;20022;-75
2022/06/16 02:17:55;;;;;;;0.60;0.60;;;21.80;55.50;;;;;;6220208;28;20484;-75
2022/06/16 02:21:26;;;;;;;0.85;0.65;;;21.80;55.50;;;;;;6200378;28;20037;-76
2022/06/16 02:24:28;;;;;;;0.98;0.75;;;21.80;55.50;;;;;;6208738;28;20068;-76
2022/06/16 02:27:28;;;;;;;0.47;0.47;;;21.80;55.50;;;;;;6219101;28;20397;-76
2022/06/16 02:30:34;;;;;;;0.70;0.68;;;21.80;55.50;;;;;;6205072;28;20045;-75
2022/06/16 02:34:13;;;;;;;0.70;0.70;;;21.80;55.50;;;;;;6198116;28;20042;-75
2022/06/16 02:37:32;;;;;;;0.70;0.70;;;21.80;55.50;;;;;;6195174;28;20054;-75
2022/06/16 02:40:32;;;;;;;0.70;0.60;;;21.80;55.50;;;;;;6215221;28;20530;-75
2022/06/16 02:44:10;;;;;;;1.25;0.60;;;21.80;56.20;;;;;;6222486;28;20124;-75
2022/06/16 02:47:46;;;;;;;0.70;0.60;;;21.80;55.50;;;;;;6200537;28;20109;-75
2022/06/16 02:50:55;;;;;;;1.40;0.70;;;21.80;55.50;;;;;;6185911;28;20034;-75
2022/06/16 02:54:10;;;;;;;1.17;0.75;;;21.80;55.50;;;;;;6207724;28;20018;-75
2022/06/16 02:57:30;;;;;;;0.90;0.68;;;21.80;55.50;;;;;;6198222;28;20339;-75
2022/06/16 03:00:39;;;;;;;1.10;0.77;;;21.80;55.50;;;;;;6212173;28;20033;-76
2022/06/16 03:03:40;;;;;;;1.05;0.88;;;21.80;55.50;;;;;;6222664;28;20033;-75
2022/06/16 03:06:41;;;;;;;0.70;0.70;;;21.80;55.50;;;;;;6218648;28;20026;-75
2022/06/16 03:09:42;;;;;;;0.90;0.80;;;21.80;55.40;;;;;;6219964;28;20423;-75
2022/06/16 03:12:42;;;;;;;1.33;0.77;;;21.80;55.40;;;;;;6218389;28;20022;-75
2022/06/16 03:15:43;;;;;;;0.70;0.70;;;21.80;55.40;;;;;;6208655;28;20097;-76
2022/06/16 03:18:43;;;;;;;1.25;0.80;;;21.80;55.40;;;;;;6197636;28;20026;-75
2022/06/16 03:21:44;;;;;;;0.82;0.77;;;21.80;55.40;;;;;;6216081;28;20405;-75
2022/06/16 03:24:45;;;;;;;0.70;0.70;;;21.80;56.20;;;;;;6215693;28;20059;-75
2022/06/16 03:27:45;;;;;;;0.95;0.65;;;21.80;55.50;;;;;;6197917;28;20489;-76
2022/06/16 03:30:46;;;;;;;0.90;0.70;;;21.80;55.50;;;;;;6204572;28;20465;-75
2022/06/16 03:33:47;;;;;;;1.00;0.70;;;21.80;55.40;;;;;;6221174;28;20109;-75
2022/06/16 03:36:48;;;;;;;0.93;0.73;;;21.80;55.40;;;;;;6168691;28;20055;-75
2022/06/16 03:39:49;;;;;;;0.88;0.80;;;21.80;55.40;;;;;;6170380;28;20520;-75
2022/06/16 03:42:49;;;;;;;0.60;0.60;;;21.80;55.40;;;;;;6169896;28;20382;-75
2022/06/16 03:45:50;;;;;;;0.70;0.70;;;21.80;55.40;;;;;;6165256;28;20090;-75
2022/06/16 03:48:51;;;;;;;1.33;0.90;;;21.80;55.40;;;;;;6168971;28;20201;-75
2022/06/16 03:51:51;;;;;;;0.90;0.65;;;21.80;55.40;;;;;;6169058;28;20058;-75
2022/06/16 03:54:52;;;;;;;0.60;0.60;;;21.80;55.40;;;;;;6167630;28;20385;-75
2022/06/16 03:57:53;;;;;;;1.13;0.80;;;21.80;55.40;;;;;;6166874;28;20039;-75
2022/06/16 04:00:53;;;;;;;0.80;0.70;;;21.80;55.30;;;;;;6170303;28;20027;-76
2022/06/16 04:04:00;;;;;;;0.98;0.77;;;21.80;55.30;;;;;;6169876;28;20506;-75
2022/06/16 04:07:00;;;;;;;1.52;0.68;;;21.90;55.40;;;;;;6178614;28;20424;-75
2022/06/16 04:10:03;;;;;;;0.60;0.60;;;21.90;55.40;;;;;;6196255;28;20026;-75
2022/06/16 04:13:05;;;;;;;0.77;0.70;;;21.90;55.30;;;;;;6220503;28;20021;-75
2022/06/16 04:16:05;;;;;;;0.70;0.70;;;21.90;55.40;;;;;;6220503;28;20014;-75
2022/06/16 04:19:07;;;;;;;0.85;0.63;;;21.90;55.30;;;;;;6220506;28;20088;-75
2022/06/16 04:22:07;;;;;;;0.82;0.70;;;21.80;55.20;;;;;;6187260;28;20030;-75
2022/06/16 04:25:15;;;;;;;0.70;0.70;;;21.90;55.30;;;;;;6196269;28;20030;-75
2022/06/16 04:28:15;;;;;;;0.90;0.70;;;21.90;55.30;;;;;;6219222;28;20030;-76
2022/06/16 04:31:16;;;;;;;0.85;0.60;;;21.90;55.30;;;;;;6212834;28;20389;-75
2022/06/16 04:34:17;;;;;;;0.80;0.65;;;21.90;55.30;;;;;;6194357;28;20030;-76
2022/06/16 04:37:18;;;;;;;0.57;0.57;;;21.90;55.30;;;;;;6195581;28;20515;-75
2022/06/16 04:40:19;;;;;;;0.77;0.70;;;21.90;55.30;;;;;;6196527;28;20023;-75
2022/06/16 04:43:19;;;;;;;1.02;0.60;;;21.90;55.30;;;;;;6217736;28;20432;-75
2022/06/16 04:46:21;;;;;;;0.82;0.68;;;21.90;55.30;;;;;;6212712;28;20058;-75
2022/06/16 04:49:21;;;;;;;0.98;0.60;;;21.80;55.20;;;;;;6195819;28;20478;-75
2022/06/16 04:52:22;;;;;;;0.75;0.63;;;21.90;55.30;;;;;;6191969;28;20026;-76
2022/06/16 04:55:23;;;;;;;0.85;0.65;;;21.90;55.30;;;;;;6220939;28;20060;-77
2022/06/16 04:58:25;;;;;;;1.20;0.90;;;21.90;55.40;;;;;;6200253;28;20429;-76
2022/06/16 05:01:25;;;;;;;0.60;0.57;;;21.90;55.30;;;;;;6200563;28;20157;-75
2022/06/16 05:04:26;;;;;;;0.80;0.60;;;21.90;55.30;;;;;;6218433;28;20025;-75
2022/06/16 05:07:26;;;;;;;1.60;0.80;;;21.90;55.30;;;;;;6220377;28;20076;-75
2022/06/16 05:10:27;;;;;;;1.00;0.80;;;21.90;55.30;;;;;;6220624;28;20030;-75
2022/06/16 05:13:28;;;;;;;1.30;0.80;;;21.90;55.30;;;;;;6200700;28;20057;-75
2022/06/16 05:16:28;;;;;;;0.70;0.70;;;21.90;55.30;;;;;;6199487;28;20029;-75
2022/06/16 05:19:30;;;;;;;0.65;0.60;;;21.90;55.30;;;;;;6220475;28;20025;-75
2022/06/16 05:22:33;;;;;;;1.13;0.70;;;21.90;55.40;;;;;;6192187;28;20620;-75
2022/06/16 05:25:34;;;;;;;0.65;0.60;;;21.90;55.40;;;;;;6196157;28;20023;-75
2022/06/16 05:28:36;;;;;;;0.75;0.70;;;21.90;55.40;;;;;;6215869;28;20096;-76
2022/06/16 05:31:37;;;;;;;0.80;0.80;;;21.90;55.40;;;;;;6221864;28;20148;-75
2022/06/16 05:34:37;;;;;;;1.38;0.70;;;21.90;55.40;;;;;;6196923;28;20477;-76
2022/06/16 05:37:39;;;;;;;0.65;0.60;;;21.90;55.40;;;;;;6198261;28;20058;-75
2022/06/16 05:40:39;;;;;;;0.93;0.70;;;21.90;55.40;;;;;;6200538;28;20014;-76
2022/06/16 05:43:41;;;;;;;0.98;0.73;;;21.90;55.40;;;;;;6214917;28;20030;-75
2022/06/16 05:46:42;;;;;;;1.17;0.80;;;21.90;55.30;;;;;;6222108;28;20102;-76
2022/06/16 05:49:44;;;;;;;1.73;0.80;;;21.90;55.30;;;;;;6200069;28;20042;-76
2022/06/16 05:52:45;;;;;;;0.73;0.63;;;21.90;55.40;;;;;;6210645;28;20022;-76
2022/06/16 05:55:46;;;;;;;1.75;1.00;;;21.90;55.30;;;;;;6222211;28;20033;-76
2022/06/16 05:58:47;;;;;;;1.10;0.90;;;21.90;55.30;;;;;;6203202;28;20077;-76
2022/06/16 06:01:48;;;;;;;1.67;0.85;;;21.90;55.30;;;;;;6193090;28;20096;-77
2022/06/16 06:04:49;;;;;;;0.80;0.73;;;21.90;55.30;;;;;;6217038;28;20057;-77
2022/06/16 06:17:53;;;;;;;0.98;0.85;;;21.90;55.40;;;;;;6191730;28;20039;-76
2022/06/16 06:20:53;;;;;;;1.85;0.80;;;21.90;55.40;;;;;;6174060;28;20536;-76
2022/06/16 06:23:54;;;;;;;0.95;0.82;;;21.90;55.40;;;;;;6187811;28;20043;-76
2022/06/16 06:26:56;;;;;;;2.03;0.98;;;21.90;55.40;;;;;;6186645;28;20042;-76
2022/06/16 06:29:57;;;;;;;0.90;0.65;;;21.90;55.40;;;;;;6194803;28;20061;-76
2022/06/16 06:32:59;;;;;;;1.00;0.70;;;21.90;55.40;;;;;;6194607;28;20626;-76
2022/06/16 06:36:00;;;;;;;0.82;0.70;;;21.80;55.30;;;;;;6181641;28;20540;-76
2022/06/16 06:39:01;;;;;;;0.90;0.60;;;21.90;55.50;;;;;;6195027;28;20050;-76
2022/06/16 06:42:04;;;;;;;0.70;0.60;;;21.90;55.50;;;;;;6193500;28;20424;-76
2022/06/16 06:45:06;;;;;;;1.30;0.88;;;21.80;55.40;;;;;;6203488;28;20022;-76
2022/06/16 06:48:08;;;;;;;0.75;0.60;;;21.90;55.40;;;;;;6224800;28;20411;-76
2022/06/16 06:51:09;;;;;;;0.68;0.60;;;21.90;55.40;;;;;;6224037;28;20030;-76
2022/06/16 06:54:09;;;;;;;1.55;1.00;;;21.90;55.40;;;;;;6216406;28;20057;-77
2022/06/16 06:57:13;;;;;;;0.70;0.68;;;21.90;55.40;;;;;;6224385;28;20022;-76
2022/06/16 07:00:15;;;;;;;0.75;0.68;;;21.90;55.50;;;;;;6208026;28;20018;-77
2022/06/16 07:03:16;;;;;;;0.82;0.70;;;21.90;55.50;;;;;;6216394;28;20026;-77
2022/06/16 07:06:18;;;;;;;0.82;0.80;;;21.90;55.50;;;;;;6182923;28;20101;-76
2022/06/16 07:09:19;;;;;;;0.55;0.50;;;21.80;55.40;;;;;;6207726;28;20037;-76
2022/06/16 07:12:20;;;;;;;0.60;0.60;;;21.80;55.40;;;;;;6223996;28;20097;-77
2022/06/16 07:15:21;;;;;;;1.15;0.90;;;21.80;55.40;;;;;;6208906;28;20685;-74
2022/06/16 07:18:21;;;;;;;2.83;0.70;;;21.90;55.60;;;;;;6211639;28;20028;-75
2022/06/16 07:21:22;;;;;;;1.33;0.73;;;21.90;53.90;;;;;;6204449;28;20508;-75
2022/06/16 07:24:23;;;;;;;1.95;0.80;;;22.00;53.00;;;;;;6213514;28;20094;-76
2022/06/16 07:27:23;;;;;;;1.35;0.90;;;22.00;52.40;;;;;;6223464;28;20018;-76
2022/06/16 07:30:24;;;;;;;1.10;0.80;;;22.20;52.20;;;;;;6207201;28;20448;-76
2022/06/16 07:33:25;;;;;;;2.95;1.05;;;22.20;51.80;;;;;;6222572;28;20021;-76
2022/06/16 07:36:26;;;;;;;2.35;1.00;;;22.20;51.60;;;;;;6199391;28;20061;-76
2022/06/16 07:39:27;;;;;;;1.83;0.90;;;22.30;51.40;;;;;;6200822;28;20034;-75
2022/06/16 07:42:27;;;;;;;1.67;0.80;;;22.30;51.40;;;;;;6198602;28;20038;-77
2022/06/16 07:45:29;;;;;;;0.82;0.70;;;22.30;51.20;;;;;;6198550;28;20092;-76
2022/06/16 07:48:30;;;;;;;2.05;0.60;;;22.40;51.10;;;;;;6204419;28;20029;-76
2022/06/16 07:51:30;;;;;;;1.17;0.60;;;22.40;50.90;;;;;;6221982;28;20025;-76
2022/06/16 07:54:31;;;;;;;3.75;0.75;;;22.40;50.80;;;;;;6209834;28;20025;-76
2022/06/16 07:57:34;;;;;;;1.00;0.68;;;22.40;50.60;;;;;;6208207;28;20025;-76
2022/06/16 08:00:36;;;;;;;0.90;0.70;;;22.40;50.50;;;;;;6195164;28;20030;-75
2022/06/16 08:03:37;;;;;;;0.98;0.60;;;22.50;51.10;;;;;;6198193;28;20057;-76
2022/06/16 08:06:38;;;;;;;0.85;0.70;;;22.50;50.30;;;;;;6220733;28;20109;-75
2022/06/16 08:09:39;;;;;;;1.85;0.93;;;22.50;50.20;;;;;;6219864;28;20026;-75
2022/06/16 08:12:40;;;;;;;4.38;0.75;;;22.50;50.10;;;;;;6223183;28;20036;-76
2022/06/16 08:15:45;;;;;;;0.93;0.70;;;22.50;50.00;;;;;;6208989;28;20085;-76
2022/06/16 08:18:46;;;;;;;1.35;0.65;;;22.50;49.90;;;;;;6198014;28;20026;-75
2022/06/16 08:21:47;;;;;;;2.95;0.75;;;22.50;49.80;;;;;;6218896;28;20465;-75
2022/06/16 08:24:47;;;;;;;1.17;0.60;;;22.50;49.80;;;;;;6204507;28;20026;-75
2022/06/16 08:27:50;;;;;;;1.17;0.57;;;22.50;49.60;;;;;;6222844;28;20440;-75
2022/06/16 08:30:50;;;;;;;1.63;0.63;;;22.50;49.60;;;;;;6209049;28;20079;-75
2022/06/16 08:33:52;;;;;;;0.82;0.63;;;22.60;49.60;;;;;;6220998;28;20052;-76
2022/06/16 08:36:53;;;;;;;2.47;0.60;;;22.60;49.80;;;;;;6201862;28;20108;-76
2022/06/16 08:39:54;;;;;;;1.25;0.60;;;22.60;49.60;;;;;;6198849;28;20465;-76
2022/06/16 08:43:01;;;;;;;1.33;0.90;;;22.60;49.40;;;;;;6222837;28;20458;-76
2022/06/16 08:46:06;;;;;;;0.82;0.60;;;22.60;49.40;;;;;;6210635;28;20026;-76
2022/06/16 08:49:14;;;;;;;0.80;0.70;;;22.60;49.20;;;;;;6198138;28;20034;-77
2022/06/16 08:52:47;;;;;;;0.55;0.50;;;22.60;49.20;;;;;;6201784;28;20116;-76
2022/06/16 08:55:57;;;;;;;0.60;0.55;;;22.60;49.20;;;;;;6174042;28;20060;-76
2022/06/16 08:59:22;;;;;;;1.10;0.70;;;22.60;49.10;;;;;;6222945;28;20029;-76
2022/06/16 09:02:52;;;;;;;0.60;0.60;;;22.60;49.00;;;;;;6220153;28;20030;-76
2022/06/16 09:06:21;;;;;;;0.77;0.60;;;22.60;49.10;;;;;;6219672;28;20076;-76
2022/06/16 09:10:15;;;;;;;0.73;0.68;;;22.60;49.10;;;;;;6190445;28;20511;-76
2022/06/16 09:13:40;;;;;;;1.08;0.75;;;22.60;48.90;;;;;;6152112;29;20459;-76
2022/06/16 09:16:45;;;;;;;0.70;0.70;;;22.60;48.80;;;;;;6159543;28;20034;-76
2022/06/16 09:20:03;;;;;;;0.63;0.60;;;22.60;48.80;;;;;;6202878;28;20027;-76
2022/06/16 09:23:03;;;;;;;0.85;0.70;;;22.60;48.80;;;;;;6226227;28;20049;-76
2022/06/16 09:26:23;;;;;;;0.80;0.60;;;22.60;48.70;;;;;;6220022;28;20023;-76
2022/06/16 09:29:48;;;;;;;0.98;0.70;;;22.60;48.60;;;;;;6203013;28;20082;-76
2022/06/16 09:32:54;;;;;;;0.73;0.60;;;22.60;48.60;;;;;;6204087;28;20476;-76
2022/06/16 09:36:30;;;;;;;0.68;0.50;;;22.60;48.50;;;;;;6201940;28;20029;-76
2022/06/16 09:39:37;;;;;;;1.60;0.55;;;22.60;48.50;;;;;;6171021;28;20204;-76
2022/06/16 09:42:46;;;;;;;0.60;0.50;;;22.60;48.40;;;;;;6219947;28;20050;-76
2022/06/16 09:45:53;;;;;;;0.70;0.60;;;22.60;48.40;;;;;;6224962;28;20116;-77
2022/06/16 09:48:56;;;;;;;0.85;0.60;;;22.60;48.40;;;;;;6198991;28;20026;-76
2022/06/16 09:52:06;;;;;;;0.50;0.50;;;22.70;48.40;;;;;;6212570;28;20022;-76
2022/06/16 09:55:29;;;;;;;0.93;0.68;;;22.60;48.20;;;;;;6224011;28;20029;-77
2022/06/16 09:58:46;;;;;;;1.05;0.70;;;22.60;48.20;;;;;;6172668;28;20129;-77
2022/06/16 10:01:54;;;;;;;0.80;0.60;;;22.70;48.20;;;;;;6167088;28;20054;-76
2022/06/16 10:04:55;;;;;;;0.75;0.57;;;22.70;48.20;;;;;;6148085;28;20403;-77
2022/06/16 10:08:21;;;;;;;0.80;0.52;;;22.70;48.20;;;;;;6167141;28;20089;-76
2022/06/16 10:12:00;;;;;;;0.85;0.65;;;22.70;48.10;;;;;;6171761;28;20530;-76
2022/06/16 10:15:33;;;;;;;0.50;0.50;;;22.70;48.10;;;;;;6079322;29;20496;-76
2022/06/16 10:18:34;;;;;;;0.52;0.50;;;22.70;48.10;;;;;;6109041;28;20108;-77
2022/06/16 10:21:36;;;;;;;0.63;0.50;;;22.70;48.10;;;;;;6170853;28;20032;-76
2022/06/16 10:24:48;;;;;;;1.10;0.60;;;22.70;48.00;;;;;;6150898;28;20042;-76
2022/06/16 10:27:52;;;;;;;0.88;0.60;;;22.70;47.90;;;;;;6164678;28;20053;-77
2022/06/16 10:30:53;;;;;;;0.60;0.60;;;22.70;48.00;;;;;;6218947;28;20093;-77
2022/06/16 10:33:56;;;;;;;0.75;0.60;;;22.70;47.90;;;;;;6200858;28;20019;-77
2022/06/16 10:37:18;;;;;;;2.15;0.60;;;22.70;47.90;;;;;;6198834;28;20038;-77
2022/06/16 10:40:29;;;;;;;0.50;0.50;;;22.70;47.80;;;;;;6225041;28;20030;-77
2022/06/16 10:43:35;;;;;;;0.68;0.65;;;22.70;47.80;;;;;;6208624;28;20121;-77
2022/06/16 10:46:55;;;;;;;0.68;0.55;;;22.70;47.80;;;;;;6198889;28;20381;-77
2022/06/16 10:49:56;;;;;;;0.98;0.60;;;22.70;47.70;;;;;;6220724;28;20030;-77
2022/06/16 10:53:46;;;;;;;0.55;0.55;;;22.70;47.70;;;;;;6217422;28;20032;-76
2022/06/16 10:56:47;;;;;;;0.50;0.50;;;22.70;47.70;;;;;;6152482;28;20046;-77
2022/06/16 11:00:07;;;;;;;0.68;0.50;;;22.70;47.60;;;;;;6196052;28;20489;-77
2022/06/16 11:03:10;;;;;;;0.45;0.45;;;22.70;47.60;;;;;;6209710;28;20045;-76
2022/06/16 11:06:18;;;;;;;1.30;0.80;;;22.70;47.60;;;;;;6223108;28;20040;-76
2022/06/16 11:09:25;;;;;;;1.00;0.63;;;22.70;47.50;;;;;;6224323;28;20037;-77
2022/06/16 11:12:26;;;;;;;1.23;0.40;;;22.70;47.50;;;;;;6220709;28;20040;-76
2022/06/16 11:15:38;;;;;;;0.82;0.60;;;22.80;47.50;;;;;;6200324;28;20054;-77
2022/06/16 11:18:41;;;;;;;0.95;0.50;;;22.80;47.50;;;;;;6212845;28;20421;-77
2022/06/16 11:21:46;;;;;;;0.85;0.52;;;22.80;47.50;;;;;;6206841;28;20121;-76
2022/06/16 11:25:17;;;;;;;0.60;0.52;;;22.70;47.40;;;;;;6202728;28;20027;-76
2022/06/16 11:28:21;;;;;;;0.60;0.55;;;22.80;47.40;;;;;;6190676;28;20037;-76
2022/06/16 11:31:34;;;;;;;0.80;0.60;;;22.70;47.30;;;;;;6218303;28;20026;-77
2022/06/16 11:34:35;;;;;;;0.68;0.60;;;22.80;47.30;;;;;;6205326;28;20030;-77
2022/06/16 11:37:50;;;;;;;0.70;0.40;;;22.80;47.40;;;;;;6199261;28;20054;-77
2022/06/16 11:40:58;;;;;;;0.60;0.60;;;22.80;47.40;;;;;;6194250;28;20022;-79
2022/06/16 11:44:29;;;;;;;0.65;0.50;;;22.80;47.30;;;;;;6204658;28;20081;-77
2022/06/16 11:47:57;;;;;;;0.60;0.50;;;22.80;47.30;;;;;;6200891;28;20018;-75
2022/06/16 11:51:10;;;;;;;1.42;0.60;;;22.80;47.40;;;;;;6198817;28;20598;-76
2022/06/16 11:54:20;;;;;;;1.25;0.85;;;22.80;47.30;;;;;;6212587;28;20026;-76
2022/06/16 11:57:29;;;;;;;0.98;0.70;;;22.80;47.20;;;;;;6211474;28;20046;-77
2022/06/16 12:00:41;;;;;;;0.90;0.70;;;22.80;47.20;;;;;;6187993;28;20239;-75
2022/06/16 12:03:41;;;;;;;2.35;0.95;;;22.80;47.10;;;;;;6218631;28;20029;-78
2022/06/16 12:07:08;;;;;;;1.98;1.13;;;22.80;47.10;;;;;;6213927;28;20057;-77
2022/06/16 12:10:31;;;;;;;2.95;1.15;;;22.80;47.10;;;;;;6203274;28;20040;-77
2022/06/16 12:13:56;;;;;;;1.70;1.10;;;22.80;47.00;;;;;;6203512;28;20108;-77
2022/06/16 12:17:01;;;;;;;1.88;1.33;;;22.80;47.00;;;;;;6223763;28;20030;-78
2022/06/16 12:20:22;;;;;;;4.80;1.40;;;22.80;47.10;;;;;;6207503;28;20023;-77
2022/06/16 12:23:34;;;;;;;5.65;1.40;;;22.80;47.00;;;;;;6198697;28;20388;-77
2022/06/16 12:27:19;;;;;;;2.28;1.42;;;22.80;47.00;;;;;;6181733;28;20026;-77
2022/06/16 12:30:25;;;;;;;2.28;1.40;;;22.80;47.00;;;;;;6210564;28;20484;-77
2022/06/16 12:33:44;;;;;;;3.08;2.05;;;22.80;46.90;;;;;;6221684;28;20021;-77
2022/06/16 12:36:54;;;;;;;2.72;1.67;;;22.80;46.90;;;;;;6197757;28;20058;-78
2022/06/16 12:40:01;;;;;;;3.10;1.73;;;22.80;46.90;;;;;;6207829;28;20037;-78
2022/06/16 12:43:08;;;;;;;3.20;1.60;;;22.80;46.90;;;;;;6222475;28;20041;-77
2022/06/16 12:46:15;;;;;;;2.17;1.48;;;22.80;46.90;;;;;;6198835;28;20433;-77
2022/06/16 12:49:28;;;;;;;2.17;1.60;;;22.80;46.80;;;;;;6203307;28;20029;-77
2022/06/16 12:52:59;;;;;;;3.50;2.08;;;22.80;46.80;;;;;;6219143;28;20038;-77
2022/06/16 12:56:20;;;;;;;3.13;1.92;;;22.80;46.70;;;;;;6191163;28;20050;-78
2022/06/16 12:59:24;;;;;;;3.00;2.10;;;22.80;46.80;;;;;;6219174;28;20061;-77
2022/06/16 13:02:33;;;;;;;3.20;1.88;;;22.80;46.80;;;;;;6221321;28;20049;-77
2022/06/16 13:05:35;;;;;;;3.03;2.15;;;22.80;46.70;;;;;;6214033;28;20385;-77
2022/06/16 13:08:39;;;;;;;3.88;2.38;;;22.80;46.70;;;;;;6204324;28;20172;-75
2022/06/16 13:12:05;;;;;;;3.75;2.47;;;22.80;46.70;;;;;;6221502;28;20014;-77
2022/06/16 13:15:22;;;;;;;3.30;2.33;;;22.80;46.60;;;;;;6221654;28;20033;-76
2022/06/16 13:18:29;;;;;;;3.95;2.42;;;22.80;46.60;;;;;;6221999;28;20115;-77
2022/06/16 13:21:40;;;;;;;3.47;2.40;;;22.80;46.60;;;;;;6201935;28;20061;-77
2022/06/16 13:24:53;;;;;;;4.25;2.70;;;22.80;46.50;;;;;;6198371;28;20022;-76
2022/06/16 13:27:56;;;;;;;3.72;2.40;;;22.90;46.60;;;;;;6221660;28;20531;-76
2022/06/16 13:31:24;;;;;;;3.22;2.30;;;22.80;46.60;;;;;;6207546;28;20054;-77
2022/06/16 13:34:42;;;;;;;3.15;2.47;;;22.80;46.50;;;;;;6197328;28;20034;-77
2022/06/16 13:37:42;;;;;;;2.78;2.20;;;22.80;46.50;;;;;;6196901;28;20441;-77
2022/06/16 13:40:44;;;;;;;3.63;2.50;;;22.80;46.50;;;;;;6206948;28;20030;-76
2022/06/16 13:44:14;;;;;;;3.25;2.30;;;22.90;46.50;;;;;;6221296;28;20500;-79
2022/06/16 13:47:19;;;;;;;3.55;2.35;;;22.80;46.50;;;;;;6181875;28;20527;-77
2022/06/16 13:50:39;;;;;;;3.10;2.58;;;22.80;46.40;;;;;;6209229;28;20034;-76
2022/06/16 13:53:47;;;;;;;4.80;2.60;;;22.90;46.50;;;;;;6207341;28;20489;-78
2022/06/16 13:56:47;;;;;;;4.20;2.60;;;22.90;46.40;;;;;;6213772;28;20852;-77
2022/06/16 13:59:58;;;;;;;3.50;2.38;;;22.90;47.10;;;;;;6220584;28;20027;-78
2022/06/16 14:03:02;;;;;;;3.58;2.47;;;22.90;46.40;;;;;;6217783;28;20124;-76
2022/06/16 14:06:09;;;;;;;4.10;2.57;;;22.90;46.40;;;;;;6211274;28;20026;-77
2022/06/16 14:09:30;;;;;;;3.80;2.70;;;22.90;46.40;;;;;;6224973;28;20281;-78
2022/06/16 14:13:00;;;;;;;3.55;2.15;;;22.90;46.40;;;;;;6199322;28;20041;-78
2022/06/16 14:16:01;;;;;;;4.97;3.00;;;22.80;46.20;;;;;;6199572;28;20019;-77
2022/06/16 14:19:09;;;;;;;3.95;2.65;;;22.90;46.30;;;;;;6182226;28;20386;-79
2022/06/16 14:22:17;;;;;;;3.78;2.55;;;22.80;46.20;;;;;;6215814;28;20038;-77
2022/06/16 14:25:46;;;;;;;3.53;2.42;;;22.80;46.20;;;;;;6220715;28;20025;-77
2022/06/16 14:28:49;;;;;;;3.05;2.22;;;22.90;46.20;;;;;;6198079;28;20038;-77
2022/06/16 14:31:58;;;;;;;3.33;2.42;;;22.80;46.20;;;;;;6201818;28;20014;-77
2022/06/16 14:35:08;;;;;;;3.00;2.15;;;22.80;46.10;;;;;;6205190;28;20140;-75
2022/06/16 14:38:13;;;;;;;4.35;2.60;;;22.90;46.20;;;;;;6200336;28;20061;-78
2022/06/16 14:41:20;;;;;;;3.42;2.60;;;22.90;46.20;;;;;;6211766;28;20026;-76
2022/06/16 14:44:27;;;;;;;3.78;2.50;;;22.80;46.10;;;;;;6195039;28;20045;-78
2022/06/16 14:47:43;;;;;;;2.78;2.03;;;22.80;46.00;;;;;;6213973;28;20112;-76
2022/06/16 14:50:54;;;;;;;2.85;2.38;;;22.80;46.10;;;;;;6221727;28;20037;-77
2022/06/16 14:54:07;;;;;;;3.42;2.22;;;22.80;46.00;;;;;;6212397;28;20080;-77
2022/06/16 14:57:19;;;;;;;2.72;2.22;;;22.80;46.00;;;;;;6207451;28;20034;-77
2022/06/16 15:00:27;;;;;;;3.55;2.65;;;22.80;46.00;;;;;;6222224;28;20101;-77
2022/06/16 15:03:31;;;;;;;2.83;2.13;;;22.80;46.00;;;;;;6204201;28;20112;-77
2022/06/16 15:06:44;;;;;;;3.95;2.40;;;22.80;46.00;;;;;;6217448;28;20029;-76
2022/06/16 15:09:45;;;;;;;4.88;2.60;;;22.80;46.00;;;;;;6198044;28;20026;-78
2022/06/16 15:12:47;;;;;;;4.90;2.50;;;22.80;45.90;;;;;;6197869;28;20092;-79
2022/06/16 15:15:47;;;;;;;2.65;2.10;;;22.90;46.10;;;;;;6180573;28;20034;-78
2022/06/16 15:18:48;;;;;;;3.47;2.45;;;22.80;45.90;;;;;;6218541;28;20484;-78
2022/06/16 15:21:50;;;;;;;4.43;2.38;;;22.80;45.90;;;;;;6216166;28;20030;-78
2022/06/16 15:24:54;;;;;;;2.72;2.20;;;22.80;45.90;;;;;;6200574;28;20496;-78
2022/06/16 15:27:55;;;;;;;2.80;2.03;;;22.80;46.00;;;;;;6208511;28;20080;-77
2022/06/16 15:31:39;;;;;;;2.70;1.77;;;22.80;45.90;;;;;;6197547;28;20041;-77
2022/06/16 15:38:09;;;;;;;2.47;1.88;;;22.80;45.90;;;;;;6211530;28;20565;-78
2022/06/16 15:41:40;;;;;;;3.38;2.10;;;22.80;45.90;;;;;;6218131;28;20030;-78
2022/06/16 15:44:45;;;;;;;2.70;2.30;;;22.80;45.80;;;;;;6180869;28;20035;-78
2022/06/16 15:47:48;;;;;;;;;;;22.90;45.90;;;;;;6207978;28;20456;-77
2022/06/16 15:50:49;;;;;;;3.78;2.47;;;22.80;45.70;;;;;;6218228;28;19952;-79
2022/06/16 15:53:50;;;;;;;3.03;1.90;;;22.90;45.80;;;;;;6216332;28;20018;-78
2022/06/16 15:56:56;;;;;;;3.05;2.20;;;22.90;45.70;;;;;;6215207;28;20072;-78
2022/06/16 16:00:02;;;;;;;2.85;2.13;;;22.90;45.80;;;;;;6216267;28;20060;-78
2022/06/16 16:03:07;;;;;;;3.80;2.10;;;22.90;45.80;;;;;;6211203;28;20101;-80
2022/06/16 16:06:08;;;;;;;3.05;2.30;;;22.90;45.80;;;;;;6196928;28;20224;-79
2022/06/16 16:09:13;;;;;;;2.95;2.13;;;22.90;45.70;;;;;;6197331;28;20493;-77
2022/06/16 16:12:16;;;;;;;;;;;22.90;45.70;;;;;;6182079;28;20121;-79
2022/06/16 16:15:17;;;;;;;3.22;2.08;;;22.90;45.70;;;;;;6203514;28;19909;-79
2022/06/16 16:18:21;;;;;;;2.75;2.03;;;22.90;45.70;;;;;;6210342;28;20033;-78
2022/06/16 16:21:31;;;;;;;3.40;2.15;;;22.80;45.60;;;;;;6195213;28;20076;-78
2022/06/16 16:24:37;;;;;;;2.70;2.17;;;22.90;45.70;;;;;;6213559;28;20041;-78
2022/06/16 16:27:38;;;;;;;3.00;1.98;;;22.90;45.70;;;;;;6216581;28;20018;-79
2022/06/16 16:30:41;;;;;;;3.03;2.10;;;22.90;45.70;;;;;;6194389;28;20552;-78
2022/06/16 16:33:43;;;;;;;2.97;2.20;;;22.90;45.60;;;;;;6192726;28;20019;-78
2022/06/16 16:36:50;;;;;;;4.60;2.20;;;22.90;45.60;;;;;;6195015;28;20046;-79